sensor_id;sensor_type;location;lat;lon;timestamp;P1;durP1;ratioP1;P2;durP2;ratioP2
71558;SDS011;59382;43.852;25.952;2023-02-18T00:00:56;14.23;;;9.50;;
71558;SDS011;59382;43.852;25.952;2023-02-18T00:03:22;13.98;;;8.20;;
71558;SDS011;59382;43.852;25.952;2023-02-18T00:05:49;15.80;;;7.88;;
71558;SDS011;59382;43.852;25.952;2023-02-18T00:08:16;9.00;;;3.90;;
71558;SDS011;59382;43.852;25.952;2023-02-18T00:10:41;15.18;;;8.90;;
71558;SDS011;59382;43.852;25.952;2023-02-18T00:13:07;19.42;;;9.15;;
71558;SDS011;59382;43.852;25.952;2023-02-18T00:15:36;15.68;;;7.57;;
71558;SDS011;59382;43.852;25.952;2023-02-18T00:18:02;17.92;;;8.93;;
71558;SDS011;59382;43.852;25.952;2023-02-18T00:20:31;17.13;;;9.43;;
71558;SDS011;59382;43.852;25.952;2023-02-18T00:23:00;18.50;;;8.82;;
71558;SDS011;59382;43.852;25.952;2023-02-18T00:25:27;13.38;;;7.90;;
71558;SDS011;59382;43.852;25.952;2023-02-18T00:27:53;16.73;;;9.13;;
71558;SDS011;59382;43.852;25.952;2023-02-18T00:30:18;18.52;;;8.27;;
71558;SDS011;59382;43.852;25.952;2023-02-18T00:32:44;17.95;;;8.73;;
71558;SDS011;59382;43.852;25.952;2023-02-18T00:35:09;16.85;;;9.10;;
71558;SDS011;59382;43.852;25.952;2023-02-18T00:37:35;18.13;;;9.23;;
71558;SDS011;59382;43.852;25.952;2023-02-18T00:40:00;15.95;;;8.07;;
71558;SDS011;59382;43.852;25.952;2023-02-18T00:42:26;16.60;;;8.20;;
71558;SDS011;59382;43.852;25.952;2023-02-18T00:44:51;16.67;;;8.10;;
71558;SDS011;59382;43.852;25.952;2023-02-18T00:47:17;15.05;;;7.63;;
71558;SDS011;59382;43.852;25.952;2023-02-18T00:49:42;17.25;;;8.00;;
71558;SDS011;59382;43.852;25.952;2023-02-18T00:52:08;15.38;;;8.82;;
71558;SDS011;59382;43.852;25.952;2023-02-18T00:54:33;15.88;;;9.30;;
71558;SDS011;59382;43.852;25.952;2023-02-18T00:56:59;14.48;;;8.32;;
71558;SDS011;59382;43.852;25.952;2023-02-18T00:59:25;17.48;;;8.73;;
71558;SDS011;59382;43.852;25.952;2023-02-18T01:01:50;13.80;;;6.32;;
71558;SDS011;59382;43.852;25.952;2023-02-18T01:04:16;16.00;;;6.95;;
71558;SDS011;59382;43.852;25.952;2023-02-18T01:06:42;13.48;;;6.82;;
71558;SDS011;59382;43.852;25.952;2023-02-18T01:09:08;16.48;;;8.00;;
71558;SDS011;59382;43.852;25.952;2023-02-18T01:11:34;16.52;;;7.95;;
71558;SDS011;59382;43.852;25.952;2023-02-18T01:14:00;15.35;;;8.20;;
71558;SDS011;59382;43.852;25.952;2023-02-18T01:16:25;15.23;;;8.90;;
71558;SDS011;59382;43.852;25.952;2023-02-18T01:18:51;14.07;;;8.15;;
71558;SDS011;59382;43.852;25.952;2023-02-18T01:21:17;14.15;;;7.95;;
71558;SDS011;59382;43.852;25.952;2023-02-18T01:23:43;15.10;;;8.65;;
71558;SDS011;59382;43.852;25.952;2023-02-18T01:26:09;16.90;;;8.00;;
71558;SDS011;59382;43.852;25.952;2023-02-18T01:28:35;18.88;;;9.57;;
71558;SDS011;59382;43.852;25.952;2023-02-18T01:31:05;28.83;;;8.70;;
71558;SDS011;59382;43.852;25.952;2023-02-18T01:33:33;16.50;;;9.07;;
71558;SDS011;59382;43.852;25.952;2023-02-18T01:35:58;17.30;;;8.27;;
71558;SDS011;59382;43.852;25.952;2023-02-18T01:38:24;11.55;;;7.30;;
71558;SDS011;59382;43.852;25.952;2023-02-18T01:40:50;18.63;;;8.75;;
71558;SDS011;59382;43.852;25.952;2023-02-18T01:43:17;14.77;;;8.00;;
71558;SDS011;59382;43.852;25.952;2023-02-18T01:51:24;14.77;;;8.05;;
71558;SDS011;59382;43.852;25.952;2023-02-18T01:56:34;13.10;;;5.97;;
71558;SDS011;59382;43.852;25.952;2023-02-18T01:59:06;14.07;;;8.15;;
71558;SDS011;59382;43.852;25.952;2023-02-18T02:01:36;21.38;;;7.78;;
71558;SDS011;59382;43.852;25.952;2023-02-18T02:04:03;17.95;;;7.88;;
71558;SDS011;59382;43.852;25.952;2023-02-18T02:06:29;13.05;;;6.70;;
71558;SDS011;59382;43.852;25.952;2023-02-18T02:08:56;23.52;;;7.13;;
71558;SDS011;59382;43.852;25.952;2023-02-18T02:11:29;21.65;;;6.80;;
71558;SDS011;59382;43.852;25.952;2023-02-18T02:14:38;15.98;;;5.70;;
71558;SDS011;59382;43.852;25.952;2023-02-18T02:31:11;11.25;;;5.07;;
71558;SDS011;59382;43.852;25.952;2023-02-18T02:37:01;14.82;;;7.63;;
71558;SDS011;59382;43.852;25.952;2023-02-18T02:40:06;11.15;;;5.82;;
71558;SDS011;59382;43.852;25.952;2023-02-18T02:48:04;7.55;;;5.38;;
71558;SDS011;59382;43.852;25.952;2023-02-18T02:50:50;7.63;;;4.95;;
71558;SDS011;59382;43.852;25.952;2023-02-18T02:53:22;8.55;;;5.38;;
71558;SDS011;59382;43.852;25.952;2023-02-18T02:55:51;11.82;;;5.50;;
71558;SDS011;59382;43.852;25.952;2023-02-18T02:58:20;11.48;;;5.72;;
71558;SDS011;59382;43.852;25.952;2023-02-18T03:08:11;9.30;;;6.05;;
71558;SDS011;59382;43.852;25.952;2023-02-18T03:12:18;9.27;;;5.60;;
71558;SDS011;59382;43.852;25.952;2023-02-18T03:19:37;7.80;;;5.18;;
71558;SDS011;59382;43.852;25.952;2023-02-18T03:22:28;9.93;;;5.40;;
71558;SDS011;59382;43.852;25.952;2023-02-18T03:24:59;10.15;;;6.20;;
71558;SDS011;59382;43.852;25.952;2023-02-18T03:28:13;10.95;;;5.82;;
71558;SDS011;59382;43.852;25.952;2023-02-18T03:32:55;10.15;;;6.05;;
71558;SDS011;59382;43.852;25.952;2023-02-18T03:35:24;11.70;;;5.70;;
71558;SDS011;59382;43.852;25.952;2023-02-18T03:37:52;8.98;;;5.53;;
71558;SDS011;59382;43.852;25.952;2023-02-18T03:40:26;9.18;;;5.32;;
71558;SDS011;59382;43.852;25.952;2023-02-18T03:42:53;12.23;;;5.65;;
71558;SDS011;59382;43.852;25.952;2023-02-18T03:45:19;8.30;;;5.28;;
71558;SDS011;59382;43.852;25.952;2023-02-18T03:47:44;11.05;;;5.55;;
71558;SDS011;59382;43.852;25.952;2023-02-18T03:50:10;11.35;;;5.65;;
71558;SDS011;59382;43.852;25.952;2023-02-18T03:52:36;13.93;;;5.65;;
71558;SDS011;59382;43.852;25.952;2023-02-18T03:55:02;9.35;;;5.72;;
71558;SDS011;59382;43.852;25.952;2023-02-18T03:57:29;7.45;;;4.97;;
71558;SDS011;59382;43.852;25.952;2023-02-18T03:59:55;9.10;;;5.60;;
71558;SDS011;59382;43.852;25.952;2023-02-18T04:02:20;8.50;;;5.63;;
71558;SDS011;59382;43.852;25.952;2023-02-18T04:04:46;9.77;;;5.38;;
71558;SDS011;59382;43.852;25.952;2023-02-18T04:07:11;9.73;;;5.72;;
71558;SDS011;59382;43.852;25.952;2023-02-18T04:09:37;8.90;;;5.80;;
71558;SDS011;59382;43.852;25.952;2023-02-18T04:12:02;8.43;;;5.45;;
71558;SDS011;59382;43.852;25.952;2023-02-18T04:14:28;9.68;;;5.30;;
71558;SDS011;59382;43.852;25.952;2023-02-18T04:16:54;11.18;;;5.68;;
71558;SDS011;59382;43.852;25.952;2023-02-18T04:19:19;11.05;;;5.78;;
71558;SDS011;59382;43.852;25.952;2023-02-18T04:21:45;8.07;;;5.13;;
71558;SDS011;59382;43.852;25.952;2023-02-18T04:24:10;12.43;;;5.00;;
71558;SDS011;59382;43.852;25.952;2023-02-18T04:26:36;7.45;;;4.82;;
71558;SDS011;59382;43.852;25.952;2023-02-18T04:29:01;13.88;;;5.28;;
71558;SDS011;59382;43.852;25.952;2023-02-18T04:31:27;17.48;;;5.40;;
71558;SDS011;59382;43.852;25.952;2023-02-18T04:33:52;9.45;;;4.28;;
71558;SDS011;59382;43.852;25.952;2023-02-18T04:36:18;8.88;;;5.03;;
71558;SDS011;59382;43.852;25.952;2023-02-18T04:38:43;6.82;;;4.60;;
71558;SDS011;59382;43.852;25.952;2023-02-18T04:41:09;10.38;;;4.80;;
71558;SDS011;59382;43.852;25.952;2023-02-18T04:43:37;7.68;;;4.80;;
71558;SDS011;59382;43.852;25.952;2023-02-18T04:46:03;7.25;;;4.97;;
71558;SDS011;59382;43.852;25.952;2023-02-18T04:48:29;9.00;;;4.57;;
71558;SDS011;59382;43.852;25.952;2023-02-18T04:50:55;8.40;;;4.07;;
71558;SDS011;59382;43.852;25.952;2023-02-18T04:53:21;5.40;;;3.17;;
71558;SDS011;59382;43.852;25.952;2023-02-18T04:55:50;7.40;;;4.03;;
71558;SDS011;59382;43.852;25.952;2023-02-18T04:58:17;5.80;;;4.05;;
71558;SDS011;59382;43.852;25.952;2023-02-18T05:00:43;9.65;;;4.53;;
71558;SDS011;59382;43.852;25.952;2023-02-18T05:03:08;7.05;;;4.07;;
71558;SDS011;59382;43.852;25.952;2023-02-18T05:05:34;8.27;;;4.10;;
71558;SDS011;59382;43.852;25.952;2023-02-18T05:08:00;6.60;;;4.03;;
71558;SDS011;59382;43.852;25.952;2023-02-18T05:10:26;5.13;;;3.30;;
71558;SDS011;59382;43.852;25.952;2023-02-18T05:12:51;11.07;;;3.90;;
71558;SDS011;59382;43.852;25.952;2023-02-18T05:15:17;6.75;;;3.42;;
71558;SDS011;59382;43.852;25.952;2023-02-18T05:17:42;14.55;;;3.83;;
71558;SDS011;59382;43.852;25.952;2023-02-18T05:20:10;5.90;;;4.25;;
71558;SDS011;59382;43.852;25.952;2023-02-18T05:22:36;10.43;;;4.55;;
71558;SDS011;59382;43.852;25.952;2023-02-18T05:25:02;7.22;;;3.65;;
71558;SDS011;59382;43.852;25.952;2023-02-18T05:27:28;7.50;;;4.90;;
71558;SDS011;59382;43.852;25.952;2023-02-18T05:29:54;6.55;;;3.97;;
71558;SDS011;59382;43.852;25.952;2023-02-18T05:32:19;7.00;;;4.05;;
71558;SDS011;59382;43.852;25.952;2023-02-18T05:34:45;7.00;;;4.07;;
71558;SDS011;59382;43.852;25.952;2023-02-18T05:37:11;6.90;;;3.67;;
71558;SDS011;59382;43.852;25.952;2023-02-18T05:39:38;5.80;;;3.67;;
71558;SDS011;59382;43.852;25.952;2023-02-18T05:42:04;9.20;;;3.53;;
71558;SDS011;59382;43.852;25.952;2023-02-18T05:44:30;7.47;;;3.65;;
71558;SDS011;59382;43.852;25.952;2023-02-18T05:47:00;7.70;;;3.83;;
71558;SDS011;59382;43.852;25.952;2023-02-18T05:49:34;11.50;;;3.88;;
71558;SDS011;59382;43.852;25.952;2023-02-18T05:52:01;64.20;;;8.85;;
71558;SDS011;59382;43.852;25.952;2023-02-18T05:54:27;8.00;;;4.05;;
71558;SDS011;59382;43.852;25.952;2023-02-18T05:56:53;6.15;;;3.95;;
71558;SDS011;59382;43.852;25.952;2023-02-18T05:59:19;7.35;;;3.60;;
71558;SDS011;59382;43.852;25.952;2023-02-18T06:01:45;4.28;;;3.40;;
71558;SDS011;59382;43.852;25.952;2023-02-18T06:04:11;7.18;;;3.92;;
71558;SDS011;59382;43.852;25.952;2023-02-18T06:06:38;4.05;;;3.10;;
71558;SDS011;59382;43.852;25.952;2023-02-18T06:09:04;11.25;;;3.75;;
71558;SDS011;59382;43.852;25.952;2023-02-18T06:11:32;5.70;;;3.50;;
71558;SDS011;59382;43.852;25.952;2023-02-18T06:13:58;10.35;;;4.18;;
71558;SDS011;59382;43.852;25.952;2023-02-18T06:16:24;12.30;;;3.97;;
71558;SDS011;59382;43.852;25.952;2023-02-18T06:18:50;5.13;;;3.65;;
71558;SDS011;59382;43.852;25.952;2023-02-18T06:21:15;6.93;;;3.95;;
71558;SDS011;59382;43.852;25.952;2023-02-18T06:23:41;15.60;;;4.95;;
71558;SDS011;59382;43.852;25.952;2023-02-18T06:26:07;5.80;;;3.88;;
71558;SDS011;59382;43.852;25.952;2023-02-18T06:28:33;6.45;;;3.70;;
71558;SDS011;59382;43.852;25.952;2023-02-18T06:30:58;6.82;;;2.97;;
71558;SDS011;59382;43.852;25.952;2023-02-18T06:33:24;8.25;;;3.92;;
71558;SDS011;59382;43.852;25.952;2023-02-18T06:35:54;9.93;;;3.55;;
71558;SDS011;59382;43.852;25.952;2023-02-18T06:38:23;11.98;;;4.07;;
71558;SDS011;59382;43.852;25.952;2023-02-18T06:40:49;10.60;;;4.85;;
71558;SDS011;59382;43.852;25.952;2023-02-18T06:43:15;11.02;;;4.28;;
71558;SDS011;59382;43.852;25.952;2023-02-18T06:45:41;5.43;;;3.38;;
71558;SDS011;59382;43.852;25.952;2023-02-18T06:48:07;10.30;;;4.28;;
71558;SDS011;59382;43.852;25.952;2023-02-18T06:50:32;13.13;;;5.45;;
71558;SDS011;59382;43.852;25.952;2023-02-18T06:52:58;12.75;;;3.35;;
71558;SDS011;59382;43.852;25.952;2023-02-18T06:55:23;7.55;;;4.30;;
71558;SDS011;59382;43.852;25.952;2023-02-18T06:57:49;8.25;;;4.78;;
71558;SDS011;59382;43.852;25.952;2023-02-18T07:00:15;7.63;;;4.50;;
71558;SDS011;59382;43.852;25.952;2023-02-18T07:02:41;35.28;;;6.38;;
71558;SDS011;59382;43.852;25.952;2023-02-18T07:05:07;6.65;;;4.53;;
71558;SDS011;59382;43.852;25.952;2023-02-18T07:07:33;10.32;;;5.03;;
71558;SDS011;59382;43.852;25.952;2023-02-18T07:09:58;6.45;;;4.22;;
71558;SDS011;59382;43.852;25.952;2023-02-18T07:12:24;12.82;;;4.53;;
71558;SDS011;59382;43.852;25.952;2023-02-18T07:14:49;13.55;;;4.38;;
71558;SDS011;59382;43.852;25.952;2023-02-18T07:17:18;16.52;;;5.22;;
71558;SDS011;59382;43.852;25.952;2023-02-18T07:19:43;6.82;;;4.40;;
71558;SDS011;59382;43.852;25.952;2023-02-18T07:22:09;16.67;;;6.03;;
71558;SDS011;59382;43.852;25.952;2023-02-18T07:24:35;11.13;;;4.28;;
71558;SDS011;59382;43.852;25.952;2023-02-18T07:27:01;7.68;;;4.32;;
71558;SDS011;59382;43.852;25.952;2023-02-18T07:29:26;11.45;;;5.32;;
71558;SDS011;59382;43.852;25.952;2023-02-18T07:31:55;12.05;;;4.65;;
71558;SDS011;59382;43.852;25.952;2023-02-18T07:34:20;15.50;;;4.70;;
71558;SDS011;59382;43.852;25.952;2023-02-18T07:36:46;11.93;;;4.40;;
71558;SDS011;59382;43.852;25.952;2023-02-18T07:39:11;7.05;;;3.00;;
71558;SDS011;59382;43.852;25.952;2023-02-18T07:41:37;7.88;;;4.60;;
71558;SDS011;59382;43.852;25.952;2023-02-18T07:44:02;8.30;;;4.07;;
71558;SDS011;59382;43.852;25.952;2023-02-18T07:46:28;8.80;;;4.22;;
71558;SDS011;59382;43.852;25.952;2023-02-18T07:48:55;16.15;;;4.50;;
71558;SDS011;59382;43.852;25.952;2023-02-18T07:51:21;6.03;;;3.92;;
71558;SDS011;59382;43.852;25.952;2023-02-18T07:53:47;22.42;;;5.20;;
71558;SDS011;59382;43.852;25.952;2023-02-18T07:56:12;16.45;;;4.68;;
71558;SDS011;59382;43.852;25.952;2023-02-18T07:58:38;13.25;;;3.80;;
71558;SDS011;59382;43.852;25.952;2023-02-18T08:01:07;11.15;;;4.00;;
71558;SDS011;59382;43.852;25.952;2023-02-18T08:03:35;5.30;;;3.83;;
71558;SDS011;59382;43.852;25.952;2023-02-18T08:06:02;17.50;;;4.75;;
71558;SDS011;59382;43.852;25.952;2023-02-18T08:08:29;14.55;;;4.40;;
71558;SDS011;59382;43.852;25.952;2023-02-18T08:10:56;10.40;;;4.32;;
71558;SDS011;59382;43.852;25.952;2023-02-18T08:13:23;26.70;;;4.88;;
71558;SDS011;59382;43.852;25.952;2023-02-18T08:15:49;27.73;;;4.72;;
71558;SDS011;59382;43.852;25.952;2023-02-18T08:18:15;8.80;;;4.05;;
71558;SDS011;59382;43.852;25.952;2023-02-18T08:20:42;11.57;;;4.32;;
71558;SDS011;59382;43.852;25.952;2023-02-18T08:23:08;55.58;;;5.75;;
71558;SDS011;59382;43.852;25.952;2023-02-18T08:25:35;11.60;;;4.82;;
71558;SDS011;59382;43.852;25.952;2023-02-18T08:28:01;11.00;;;4.05;;
71558;SDS011;59382;43.852;25.952;2023-02-18T08:30:26;6.63;;;4.15;;
71558;SDS011;59382;43.852;25.952;2023-02-18T08:32:52;30.25;;;5.03;;
71558;SDS011;59382;43.852;25.952;2023-02-18T08:35:17;13.77;;;4.68;;
71558;SDS011;59382;43.852;25.952;2023-02-18T08:37:43;9.02;;;4.75;;
71558;SDS011;59382;43.852;25.952;2023-02-18T08:40:09;10.80;;;3.95;;
71558;SDS011;59382;43.852;25.952;2023-02-18T08:42:35;13.40;;;4.97;;
71558;SDS011;59382;43.852;25.952;2023-02-18T08:45:01;10.35;;;4.03;;
71558;SDS011;59382;43.852;25.952;2023-02-18T08:47:27;7.40;;;4.00;;
71558;SDS011;59382;43.852;25.952;2023-02-18T08:49:52;7.43;;;4.10;;
71558;SDS011;59382;43.852;25.952;2023-02-18T08:52:19;12.13;;;4.30;;
71558;SDS011;59382;43.852;25.952;2023-02-18T08:54:44;7.38;;;4.40;;
71558;SDS011;59382;43.852;25.952;2023-02-18T08:57:10;13.23;;;4.97;;
71558;SDS011;59382;43.852;25.952;2023-02-18T08:59:35;39.95;;;6.18;;
71558;SDS011;59382;43.852;25.952;2023-02-18T09:02:01;11.63;;;4.95;;
71558;SDS011;59382;43.852;25.952;2023-02-18T09:04:27;13.07;;;4.07;;
71558;SDS011;59382;43.852;25.952;2023-02-18T09:06:52;14.57;;;4.80;;
71558;SDS011;59382;43.852;25.952;2023-02-18T09:09:19;70.93;;;7.15;;
71558;SDS011;59382;43.852;25.952;2023-02-18T09:11:45;11.68;;;4.53;;
71558;SDS011;59382;43.852;25.952;2023-02-18T09:14:11;54.95;;;6.53;;
71558;SDS011;59382;43.852;25.952;2023-02-18T09:16:38;9.73;;;5.38;;
71558;SDS011;59382;43.852;25.952;2023-02-18T09:19:04;9.65;;;4.68;;
71558;SDS011;59382;43.852;25.952;2023-02-18T09:21:30;15.43;;;6.18;;
71558;SDS011;59382;43.852;25.952;2023-02-18T09:23:57;15.38;;;4.97;;
71558;SDS011;59382;43.852;25.952;2023-02-18T09:26:22;8.95;;;4.25;;
71558;SDS011;59382;43.852;25.952;2023-02-18T09:28:49;19.55;;;4.32;;
71558;SDS011;59382;43.852;25.952;2023-02-18T09:31:17;12.15;;;4.47;;
71558;SDS011;59382;43.852;25.952;2023-02-18T09:33:46;8.30;;;4.40;;
71558;SDS011;59382;43.852;25.952;2023-02-18T09:36:17;7.07;;;4.03;;
71558;SDS011;59382;43.852;25.952;2023-02-18T09:38:48;15.43;;;4.90;;
71558;SDS011;59382;43.852;25.952;2023-02-18T09:41:47;16.77;;;4.68;;
71558;SDS011;59382;43.852;25.952;2023-02-18T09:44:20;10.55;;;4.75;;
71558;SDS011;59382;43.852;25.952;2023-02-18T09:49:59;17.38;;;4.82;;
71558;SDS011;59382;43.852;25.952;2023-02-18T09:52:33;12.13;;;4.68;;
71558;SDS011;59382;43.852;25.952;2023-02-18T10:00:41;6.82;;;4.28;;
71558;SDS011;59382;43.852;25.952;2023-02-18T10:03:12;8.55;;;3.58;;
71558;SDS011;59382;43.852;25.952;2023-02-18T10:05:45;6.43;;;4.15;;
71558;SDS011;59382;43.852;25.952;2023-02-18T10:08:48;12.47;;;4.63;;
71558;SDS011;59382;43.852;25.952;2023-02-18T10:11:18;6.03;;;3.78;;
71558;SDS011;59382;43.852;25.952;2023-02-18T10:13:48;6.88;;;4.20;;
71558;SDS011;59382;43.852;25.952;2023-02-18T10:16:16;17.17;;;5.22;;
71558;SDS011;59382;43.852;25.952;2023-02-18T10:18:44;15.43;;;4.10;;
71558;SDS011;59382;43.852;25.952;2023-02-18T10:21:21;12.27;;;4.53;;
71558;SDS011;59382;43.852;25.952;2023-02-18T10:24:06;10.52;;;4.38;;
71558;SDS011;59382;43.852;25.952;2023-02-18T10:26:49;9.38;;;4.35;;
71558;SDS011;59382;43.852;25.952;2023-02-18T10:29:16;8.02;;;4.32;;
71558;SDS011;59382;43.852;25.952;2023-02-18T10:31:44;8.43;;;4.70;;
71558;SDS011;59382;43.852;25.952;2023-02-18T10:50:39;5.88;;;3.72;;
71558;SDS011;59382;43.852;25.952;2023-02-18T10:53:11;6.60;;;4.30;;
71558;SDS011;59382;43.852;25.952;2023-02-18T10:55:41;21.35;;;5.55;;
71558;SDS011;59382;43.852;25.952;2023-02-18T11:00:50;22.10;;;4.85;;
71558;SDS011;59382;43.852;25.952;2023-02-18T11:03:20;15.20;;;6.18;;
71558;SDS011;59382;43.852;25.952;2023-02-18T11:05:51;8.13;;;4.85;;
71558;SDS011;59382;43.852;25.952;2023-02-18T11:08:23;7.28;;;4.03;;
71558;SDS011;59382;43.852;25.952;2023-02-18T11:10:52;8.07;;;3.80;;
71558;SDS011;59382;43.852;25.952;2023-02-18T11:13:28;7.63;;;4.78;;
71558;SDS011;59382;43.852;25.952;2023-02-18T11:16:00;10.10;;;4.22;;
71558;SDS011;59382;43.852;25.952;2023-02-18T11:18:31;9.35;;;4.20;;
71558;SDS011;59382;43.852;25.952;2023-02-18T11:21:04;13.02;;;4.97;;
71558;SDS011;59382;43.852;25.952;2023-02-18T11:23:51;11.68;;;4.20;;
71558;SDS011;59382;43.852;25.952;2023-02-18T11:26:30;10.90;;;4.68;;
71558;SDS011;59382;43.852;25.952;2023-02-18T11:29:07;8.20;;;4.38;;
71558;SDS011;59382;43.852;25.952;2023-02-18T11:31:47;6.70;;;3.92;;
71558;SDS011;59382;43.852;25.952;2023-02-18T11:34:16;8.63;;;4.15;;
71558;SDS011;59382;43.852;25.952;2023-02-18T11:36:44;13.07;;;4.70;;
71558;SDS011;59382;43.852;25.952;2023-02-18T11:39:21;9.63;;;4.68;;
71558;SDS011;59382;43.852;25.952;2023-02-18T11:44:25;8.43;;;4.97;;
71558;SDS011;59382;43.852;25.952;2023-02-18T11:47:35;24.40;;;4.38;;
71558;SDS011;59382;43.852;25.952;2023-02-18T11:49:41;7.85;;;4.78;;
71558;SDS011;59382;43.852;25.952;2023-02-18T11:54:40;11.07;;;4.10;;
71558;SDS011;59382;43.852;25.952;2023-02-18T11:57:08;13.00;;;4.10;;
71558;SDS011;59382;43.852;25.952;2023-02-18T11:59:37;11.60;;;4.63;;
71558;SDS011;59382;43.852;25.952;2023-02-18T12:04:40;10.48;;;4.45;;
71558;SDS011;59382;43.852;25.952;2023-02-18T12:07:18;23.90;;;5.28;;
71558;SDS011;59382;43.852;25.952;2023-02-18T12:09:58;7.13;;;4.43;;
71558;SDS011;59382;43.852;25.952;2023-02-18T12:12:33;8.30;;;4.40;;
71558;SDS011;59382;43.852;25.952;2023-02-18T12:15:07;15.45;;;4.88;;
71558;SDS011;59382;43.852;25.952;2023-02-18T12:22:48;16.98;;;5.05;;
71558;SDS011;59382;43.852;25.952;2023-02-18T12:25:28;7.63;;;4.38;;
71558;SDS011;59382;43.852;25.952;2023-02-18T12:48:14;8.77;;;4.38;;
71558;SDS011;59382;43.852;25.952;2023-02-18T12:54:01;9.63;;;4.60;;
71558;SDS011;59382;43.852;25.952;2023-02-18T13:02:22;8.05;;;4.32;;
71558;SDS011;59382;43.852;25.952;2023-02-18T13:13:20;6.82;;;4.00;;
71558;SDS011;59382;43.852;25.952;2023-02-18T13:18:29;10.32;;;4.78;;
71558;SDS011;59382;43.852;25.952;2023-02-18T13:21:05;11.98;;;4.45;;
71558;SDS011;59382;43.852;25.952;2023-02-18T13:23:37;8.97;;;4.73;;
71558;SDS011;59382;43.852;25.952;2023-02-18T13:26:08;7.20;;;4.25;;
71558;SDS011;59382;43.852;25.952;2023-02-18T13:29:04;13.30;;;6.72;;
71558;SDS011;59382;43.852;25.952;2023-02-18T13:40:20;10.23;;;3.75;;
71558;SDS011;59382;43.852;25.952;2023-02-18T13:42:52;6.45;;;3.95;;
71558;SDS011;59382;43.852;25.952;2023-02-18T13:45:23;15.23;;;5.28;;
71558;SDS011;59382;43.852;25.952;2023-02-18T13:47:50;9.93;;;4.43;;
71558;SDS011;59382;43.852;25.952;2023-02-18T13:55:17;13.00;;;4.60;;
71558;SDS011;59382;43.852;25.952;2023-02-18T13:57:47;15.82;;;5.65;;
71558;SDS011;59382;43.852;25.952;2023-02-18T14:00:24;12.35;;;5.15;;
71558;SDS011;59382;43.852;25.952;2023-02-18T14:03:02;8.15;;;4.63;;
71558;SDS011;59382;43.852;25.952;2023-02-18T14:06:39;9.45;;;5.43;;
71558;SDS011;59382;43.852;25.952;2023-02-18T14:11:38;12.43;;;5.88;;
71558;SDS011;59382;43.852;25.952;2023-02-18T14:19:37;14.32;;;4.50;;
71558;SDS011;59382;43.852;25.952;2023-02-18T14:24:55;6.65;;;4.43;;
71558;SDS011;59382;43.852;25.952;2023-02-18T14:27:41;12.63;;;4.80;;
71558;SDS011;59382;43.852;25.952;2023-02-18T14:30:18;8.23;;;4.00;;
71558;SDS011;59382;43.852;25.952;2023-02-18T14:32:55;8.80;;;3.97;;
71558;SDS011;59382;43.852;25.952;2023-02-18T14:35:31;13.27;;;4.65;;
71558;SDS011;59382;43.852;25.952;2023-02-18T14:38:10;6.45;;;4.65;;
71558;SDS011;59382;43.852;25.952;2023-02-18T14:40:53;4.53;;;3.42;;
71558;SDS011;59382;43.852;25.952;2023-02-18T14:50:04;11.23;;;4.03;;
71558;SDS011;59382;43.852;25.952;2023-02-18T14:52:37;12.70;;;4.60;;
71558;SDS011;59382;43.852;25.952;2023-02-18T14:55:00;14.07;;;3.80;;
71558;SDS011;59382;43.852;25.952;2023-02-18T14:57:32;6.78;;;3.88;;
71558;SDS011;59382;43.852;25.952;2023-02-18T15:00:03;7.55;;;4.25;;
71558;SDS011;59382;43.852;25.952;2023-02-18T15:02:29;4.85;;;3.67;;
71558;SDS011;59382;43.852;25.952;2023-02-18T15:05:15;8.23;;;4.00;;
71558;SDS011;59382;43.852;25.952;2023-02-18T15:08:01;7.38;;;4.15;;
71558;SDS011;59382;43.852;25.952;2023-02-18T15:10:41;11.00;;;4.85;;
71558;SDS011;59382;43.852;25.952;2023-02-18T15:13:26;19.33;;;4.30;;
71558;SDS011;59382;43.852;25.952;2023-02-18T15:15:59;9.02;;;4.30;;
71558;SDS011;59382;43.852;25.952;2023-02-18T15:18:33;16.17;;;4.60;;
71558;SDS011;59382;43.852;25.952;2023-02-18T15:21:01;6.30;;;3.92;;
71558;SDS011;59382;43.852;25.952;2023-02-18T15:23:29;9.05;;;3.63;;
71558;SDS011;59382;43.852;25.952;2023-02-18T15:25:59;6.25;;;3.90;;
71558;SDS011;59382;43.852;25.952;2023-02-18T15:28:29;15.82;;;4.03;;
71558;SDS011;59382;43.852;25.952;2023-02-18T15:30:57;6.40;;;4.05;;
71558;SDS011;59382;43.852;25.952;2023-02-18T15:33:24;6.63;;;4.15;;
71558;SDS011;59382;43.852;25.952;2023-02-18T15:35:50;8.85;;;4.50;;
71558;SDS011;59382;43.852;25.952;2023-02-18T15:38:19;8.70;;;4.18;;
71558;SDS011;59382;43.852;25.952;2023-02-18T15:40:49;11.65;;;4.25;;
71558;SDS011;59382;43.852;25.952;2023-02-18T15:43:21;6.07;;;4.05;;
71558;SDS011;59382;43.852;25.952;2023-02-18T15:45:50;9.82;;;4.70;;
71558;SDS011;59382;43.852;25.952;2023-02-18T15:51:10;8.32;;;4.10;;
71558;SDS011;59382;43.852;25.952;2023-02-18T15:53:38;7.88;;;3.97;;
71558;SDS011;59382;43.852;25.952;2023-02-18T15:56:08;9.20;;;4.30;;
71558;SDS011;59382;43.852;25.952;2023-02-18T15:58:36;8.88;;;5.18;;
71558;SDS011;59382;43.852;25.952;2023-02-18T16:01:06;6.97;;;3.97;;
71558;SDS011;59382;43.852;25.952;2023-02-18T16:06:12;7.55;;;4.07;;
71558;SDS011;59382;43.852;25.952;2023-02-18T16:08:54;6.57;;;4.30;;
71558;SDS011;59382;43.852;25.952;2023-02-18T16:11:22;9.13;;;3.67;;
71558;SDS011;59382;43.852;25.952;2023-02-18T16:13:49;13.23;;;4.45;;
71558;SDS011;59382;43.852;25.952;2023-02-18T16:16:22;8.05;;;4.43;;
71558;SDS011;59382;43.852;25.952;2023-02-18T16:18:51;4.68;;;3.78;;
71558;SDS011;59382;43.852;25.952;2023-02-18T16:23:53;8.65;;;4.45;;
71558;SDS011;59382;43.852;25.952;2023-02-18T16:26:29;7.50;;;3.92;;
71558;SDS011;59382;43.852;25.952;2023-02-18T16:29:00;6.30;;;4.05;;
71558;SDS011;59382;43.852;25.952;2023-02-18T16:31:29;8.07;;;4.22;;
71558;SDS011;59382;43.852;25.952;2023-02-18T16:33:55;8.23;;;4.85;;
71558;SDS011;59382;43.852;25.952;2023-02-18T16:36:22;6.82;;;4.20;;
71558;SDS011;59382;43.852;25.952;2023-02-18T16:38:48;9.18;;;4.70;;
71558;SDS011;59382;43.852;25.952;2023-02-18T16:41:13;5.93;;;4.50;;
71558;SDS011;59382;43.852;25.952;2023-02-18T16:43:39;7.07;;;4.43;;
71558;SDS011;59382;43.852;25.952;2023-02-18T16:46:07;15.63;;;4.20;;
71558;SDS011;59382;43.852;25.952;2023-02-18T16:48:48;8.52;;;4.75;;
71558;SDS011;59382;43.852;25.952;2023-02-18T16:51:20;6.68;;;4.15;;
71558;SDS011;59382;43.852;25.952;2023-02-18T16:53:48;9.48;;;5.63;;
71558;SDS011;59382;43.852;25.952;2023-02-18T16:56:15;6.65;;;3.67;;
71558;SDS011;59382;43.852;25.952;2023-02-18T16:58:43;9.98;;;4.20;;
71558;SDS011;59382;43.852;25.952;2023-02-18T17:01:23;8.63;;;3.35;;
71558;SDS011;59382;43.852;25.952;2023-02-18T17:04:01;5.05;;;3.78;;
71558;SDS011;59382;43.852;25.952;2023-02-18T17:06:28;5.60;;;3.85;;
71558;SDS011;59382;43.852;25.952;2023-02-18T17:08:54;10.73;;;3.88;;
71558;SDS011;59382;43.852;25.952;2023-02-18T17:11:21;6.10;;;3.33;;
71558;SDS011;59382;43.852;25.952;2023-02-18T17:13:54;6.72;;;3.78;;
71558;SDS011;59382;43.852;25.952;2023-02-18T17:16:22;11.32;;;4.20;;
71558;SDS011;59382;43.852;25.952;2023-02-18T17:18:48;12.43;;;3.72;;
71558;SDS011;59382;43.852;25.952;2023-02-18T17:21:15;6.43;;;4.20;;
71558;SDS011;59382;43.852;25.952;2023-02-18T17:23:42;9.40;;;3.30;;
71558;SDS011;59382;43.852;25.952;2023-02-18T17:26:13;7.03;;;3.90;;
71558;SDS011;59382;43.852;25.952;2023-02-18T17:28:39;6.35;;;3.95;;